Time;durP1;ratioP1;P1;durP2;ratioP2;P2;SDS_P1;SDS_P2;PMS_P1;PMS_P2;Temp;Humidity;BMP_temperature;BMP_pressure;BME280_temperature;BME280_humidity;BME280_pressure;Samples;Min_cycle;Max_cycle;Signal;HPM_P1;HPM_P2
2022/03/22 00:01:31;;;;;;;11.07;7.70;;;11.20;81.50;;;;;;5050421;28;20456;-72
2022/03/22 00:03:58;;;;;;;11.90;7.30;;;11.20;81.80;;;;;;5053329;28;20256;-68
2022/03/22 00:06:24;;;;;;;9.77;7.07;;;11.20;82.10;;;;;;5053261;28;20225;-75
2022/03/22 00:08:57;;;;;;;10.03;7.43;;;11.20;82.60;;;;;;5048069;28;20174;-74
2022/03/22 00:11:22;;;;;;;10.37;7.27;;;11.20;83.40;;;;;;5047529;28;20211;-74
2022/03/22 00:13:50;;;;;;;11.47;7.60;;;11.10;83.00;;;;;;5045303;28;20189;-77
2022/03/22 00:16:16;;;;;;;9.20;7.13;;;11.10;83.20;;;;;;5052882;28;20181;-76
2022/03/22 00:18:41;;;;;;;9.13;6.80;;;11.10;83.50;;;;;;5053290;28;20205;-67
2022/03/22 00:21:07;;;;;;;11.43;7.07;;;11.10;83.70;;;;;;5050172;28;20178;-78
2022/03/22 00:23:33;;;;;;;12.70;6.93;;;11.00;84.40;;;;;;5053188;28;20188;-76
2022/03/22 00:26:03;;;;;;;9.63;6.50;;;11.00;83.90;;;;;;5044925;28;20267;-74
2022/03/22 00:28:28;;;;;;;8.63;6.50;;;10.90;83.90;;;;;;5049502;28;20200;-77
2022/03/22 00:30:54;;;;;;;10.20;7.13;;;10.90;84.10;;;;;;5055190;28;20177;-76
2022/03/22 00:33:22;;;;;;;7.70;6.50;;;10.90;84.50;;;;;;5048928;28;20503;-76
2022/03/22 00:35:48;;;;;;;13.43;6.93;;;10.90;84.50;;;;;;5050487;28;20193;-72
2022/03/22 00:38:20;;;;;;;10.17;7.50;;;10.80;84.60;;;;;;5043295;28;20205;-77
2022/03/22 00:40:46;;;;;;;10.73;6.50;;;10.80;85.10;;;;;;5051701;28;20181;-77
2022/03/22 00:43:14;;;;;;;9.30;6.40;;;10.80;85.20;;;;;;5042552;28;20217;-73
2022/03/22 00:45:41;;;;;;;8.73;6.63;;;10.80;86.00;;;;;;5054005;28;20185;-78
2022/03/22 00:48:12;;;;;;;6.90;6.20;;;10.70;85.50;;;;;;5045938;28;20213;-73
2022/03/22 00:50:43;;;;;;;7.70;5.90;;;10.70;86.20;;;;;;5052652;28;20262;-74
2022/03/22 00:53:09;;;;;;;8.17;6.70;;;10.70;86.40;;;;;;5052036;28;20184;-72
2022/03/22 00:55:36;;;;;;;9.07;6.67;;;10.70;86.60;;;;;;5051935;28;20177;-76
2022/03/22 00:58:03;;;;;;;8.23;6.77;;;10.70;86.70;;;;;;5042464;28;20202;-72
2022/03/22 01:00:29;;;;;;;6.97;5.63;;;10.60;87.00;;;;;;5057040;28;20212;-72
2022/03/22 01:02:58;;;;;;;8.80;6.40;;;10.60;87.20;;;;;;5053110;28;20182;-73
2022/03/22 01:05:27;;;;;;;9.47;6.47;;;10.60;87.50;;;;;;5052429;28;20178;-76
2022/03/22 01:07:56;;;;;;;8.57;5.97;;;10.60;87.90;;;;;;5051276;28;20216;-77
2022/03/22 01:10:24;;;;;;;7.60;6.23;;;10.60;87.70;;;;;;5053699;28;20192;-75
2022/03/22 01:12:50;;;;;;;9.00;6.60;;;10.60;87.70;;;;;;5051017;28;20186;-69
2022/03/22 01:15:25;;;;;;;8.97;6.97;;;10.60;87.70;;;;;;5052675;28;20428;-71
2022/03/22 01:17:58;;;;;;;8.93;6.43;;;10.60;88.60;;;;;;5065885;28;20207;-72
2022/03/22 01:20:26;;;;;;;7.57;6.37;;;10.50;88.30;;;;;;5048127;28;20198;-78
2022/03/22 01:22:52;;;;;;;8.37;6.80;;;10.50;88.00;;;;;;5037051;28;20468;-72
2022/03/22 01:25:20;;;;;;;9.70;6.73;;;10.40;88.00;;;;;;5057106;28;20177;-76
2022/03/22 01:27:47;;;;;;;10.13;6.70;;;10.40;88.40;;;;;;5047230;28;20209;-78
2022/03/22 01:30:19;;;;;;;9.33;7.03;;;10.40;88.50;;;;;;5042917;28;20177;-76
2022/03/22 01:32:46;;;;;;;9.37;6.73;;;10.30;88.40;;;;;;5070121;28;20185;-76
2022/03/22 01:35:14;;;;;;;8.77;6.27;;;10.30;88.40;;;;;;5053390;28;20198;-74
2022/03/22 01:37:48;;;;;;;11.40;6.97;;;10.30;88.50;;;;;;5049697;28;20217;-72
2022/03/22 01:40:16;;;;;;;9.57;7.10;;;10.30;88.80;;;;;;5055950;28;20177;-69
2022/03/22 01:42:42;;;;;;;9.07;6.70;;;10.20;88.50;;;;;;5063446;28;20190;-73
2022/03/22 01:45:12;;;;;;;9.57;7.30;;;10.20;88.20;;;;;;5054759;28;20178;-78
2022/03/22 01:47:44;;;;;;;9.17;6.57;;;10.20;88.80;;;;;;5047058;28;20209;-76
2022/03/22 01:50:14;;;;;;;9.93;7.70;;;10.10;88.80;;;;;;5052269;28;20209;-73
2022/03/22 01:52:42;;;;;;;10.47;6.97;;;10.10;88.80;;;;;;5052323;28;20192;-76
2022/03/22 01:55:09;;;;;;;9.57;7.20;;;10.10;88.50;;;;;;5044132;28;20188;-76
2022/03/22 01:57:37;;;;;;;9.73;7.13;;;10.00;88.70;;;;;;5059456;28;20201;-77
2022/03/22 02:00:09;;;;;;;9.93;6.87;;;10.00;88.60;;;;;;5047101;28;20194;-75
2022/03/22 02:08:12;;;;;;;9.70;6.70;;;9.80;89.80;;;;;;5052644;28;20215;-74
2022/03/22 02:10:38;;;;;;;8.03;6.40;;;9.80;90.10;;;;;;5050948;28;20188;-73
2022/03/22 02:13:04;;;;;;;8.20;6.27;;;9.70;90.00;;;;;;5053104;28;20181;-76
2022/03/22 02:15:31;;;;;;;9.50;6.43;;;9.70;90.00;;;;;;5039198;28;20212;-76
2022/03/22 02:17:57;;;;;;;8.47;6.50;;;9.70;90.00;;;;;;5050504;28;20397;-77
2022/03/22 02:20:25;;;;;;;8.87;6.80;;;9.70;90.10;;;;;;5048015;28;20190;-71
2022/03/22 02:22:52;;;;;;;8.87;6.87;;;9.70;90.20;;;;;;5043162;28;20188;-76
2022/03/22 02:25:20;;;;;;;8.43;6.63;;;9.60;90.30;;;;;;5059319;28;20190;-76
2022/03/22 02:27:53;;;;;;;7.90;6.60;;;9.60;90.50;;;;;;5063939;28;20201;-76
2022/03/22 02:30:22;;;;;;;7.90;6.70;;;9.60;90.70;;;;;;5045079;28;20264;-77
2022/03/22 02:32:53;;;;;;;9.90;6.87;;;9.60;90.60;;;;;;5046256;28;20198;-71
2022/03/22 02:35:22;;;;;;;9.07;6.83;;;9.60;90.90;;;;;;5041215;28;20343;-76
2022/03/22 02:37:49;;;;;;;8.30;6.73;;;9.50;90.90;;;;;;5066201;28;20220;-74
2022/03/22 02:40:16;;;;;;;9.33;6.83;;;9.50;90.80;;;;;;5054525;28;20208;-74
2022/03/22 02:42:47;;;;;;;9.07;6.60;;;9.50;91.00;;;;;;5047773;28;20206;-73
2022/03/22 02:45:15;;;;;;;11.10;6.63;;;9.40;91.20;;;;;;5043163;28;20181;-77
2022/03/22 02:47:42;;;;;;;9.10;6.90;;;9.40;91.00;;;;;;5044674;28;20190;-75
2022/03/22 02:50:09;;;;;;;9.53;6.77;;;9.40;91.10;;;;;;5046304;28;20216;-76
2022/03/22 02:52:36;;;;;;;8.40;6.30;;;9.30;91.20;;;;;;5065983;28;20201;-70
2022/03/22 02:55:04;;;;;;;9.20;6.87;;;9.20;91.30;;;;;;5055089;28;20264;-75
2022/03/22 02:57:29;;;;;;;8.03;6.40;;;9.20;91.50;;;;;;5043165;28;20232;-73
2022/03/22 02:59:55;;;;;;;8.27;5.97;;;9.20;91.50;;;;;;5052668;28;20228;-72
2022/03/22 03:02:20;;;;;;;9.40;7.03;;;9.10;91.50;;;;;;5055011;28;20197;-75
2022/03/22 03:04:46;;;;;;;8.57;6.67;;;9.10;91.60;;;;;;5050072;28;20169;-71
2022/03/22 03:07:14;;;;;;;9.37;6.70;;;9.10;91.70;;;;;;5052071;28;20177;-72
2022/03/22 03:09:40;;;;;;;8.60;6.57;;;9.10;91.80;;;;;;5054857;28;20235;-72
2022/03/22 03:12:08;;;;;;;10.10;6.17;;;9.00;91.70;;;;;;5048311;28;20177;-72
2022/03/22 03:14:39;;;;;;;8.00;6.37;;;9.00;91.80;;;;;;5042833;28;20177;-71
2022/03/22 03:17:13;;;;;;;10.03;6.80;;;9.00;92.10;;;;;;5048591;28;20307;-71
2022/03/22 03:19:41;;;;;;;7.60;6.10;;;9.00;92.10;;;;;;5048567;28;20173;-70
2022/03/22 03:22:12;;;;;;;7.90;6.30;;;9.00;92.10;;;;;;5049232;28;20182;-71
2022/03/22 03:24:40;;;;;;;8.00;5.90;;;8.90;92.20;;;;;;5062174;28;20189;-69
2022/03/22 03:27:13;;;;;;;8.00;6.30;;;8.90;92.20;;;;;;5041169;28;20285;-71
2022/03/22 03:29:38;;;;;;;7.77;6.60;;;8.90;92.40;;;;;;5063016;28;20201;-71
2022/03/22 03:32:07;;;;;;;8.20;6.10;;;8.80;92.30;;;;;;5045115;28;20185;-71
2022/03/22 03:34:34;;;;;;;7.77;6.33;;;8.80;92.40;;;;;;5045332;28;20193;-72
2022/03/22 03:37:08;;;;;;;8.13;6.03;;;8.70;92.30;;;;;;5053739;28;20223;-71
2022/03/22 03:39:34;;;;;;;10.37;6.10;;;8.70;92.60;;;;;;5052529;28;20324;-72
2022/03/22 03:42:01;;;;;;;7.90;6.20;;;8.70;92.50;;;;;;5048193;28;20177;-72
2022/03/22 03:47:23;;;;;;;8.93;5.93;;;8.70;93.10;;;;;;5045536;28;20261;-70
2022/03/22 03:49:54;;;;;;;9.47;6.23;;;8.60;92.80;;;;;;5046174;28;20192;-71
2022/03/22 03:52:24;;;;;;;10.63;6.20;;;8.60;93.00;;;;;;5040039;28;20189;-71
2022/03/22 03:54:53;;;;;;;11.17;6.10;;;8.60;93.00;;;;;;5060990;28;20238;-69
2022/03/22 03:57:25;;;;;;;8.20;5.80;;;8.60;93.20;;;;;;5062366;28;20201;-70
2022/03/22 03:59:54;;;;;;;9.70;6.80;;;8.60;93.30;;;;;;5053085;28;20194;-71
2022/03/22 04:02:21;;;;;;;7.43;6.10;;;8.60;93.20;;;;;;5059413;28;20189;-70
2022/03/22 04:04:53;;;;;;;8.67;6.00;;;8.50;93.20;;;;;;5046458;28;20315;-72
2022/03/22 04:07:27;;;;;;;7.93;6.30;;;8.50;93.20;;;;;;5053248;28;20180;-72
2022/03/22 04:09:56;;;;;;;8.77;6.07;;;8.50;93.70;;;;;;5050684;28;20188;-71
2022/03/22 04:12:23;;;;;;;9.77;6.50;;;8.50;93.30;;;;;;5045055;28;20202;-72
2022/03/22 04:14:51;;;;;;;7.93;6.40;;;8.40;93.50;;;;;;5039803;28;20252;-71
2022/03/22 04:17:17;;;;;;;8.80;6.60;;;8.40;93.90;;;;;;5053203;28;20212;-72
2022/03/22 04:19:48;;;;;;;8.67;6.40;;;8.40;93.70;;;;;;5049171;28;20231;-71
2022/03/22 04:22:14;;;;;;;9.90;6.77;;;8.40;94.10;;;;;;5049444;28;20185;-72
2022/03/22 04:24:39;;;;;;;9.97;7.43;;;8.40;94.20;;;;;;5050430;28;20197;-71
2022/03/22 04:32:42;;;;;;;10.00;7.53;;;8.50;96.10;;;;;;5046573;28;20227;-71
2022/03/22 04:35:24;;;;;;;13.60;8.50;;;8.50;95.90;;;;;;5044688;28;20212;-71
2022/03/22 04:37:54;;;;;;;10.20;6.97;;;8.50;96.50;;;;;;5055416;28;20419;-70
2022/03/22 04:40:22;;;;;;;10.17;8.03;;;8.60;96.40;;;;;;5050377;28;20189;-71
2022/03/22 04:42:51;;;;;;;13.17;8.50;;;8.60;96.80;;;;;;5044605;28;20184;-71
2022/03/22 04:45:19;;;;;;;10.57;8.30;;;8.60;96.60;;;;;;5056008;28;20289;-71
2022/03/22 04:47:45;;;;;;;9.53;7.83;;;8.60;96.70;;;;;;5042768;28;20200;-71
2022/03/22 04:50:15;;;;;;;11.77;8.20;;;8.60;96.70;;;;;;5044267;28;20186;-69
2022/03/22 04:58:17;;;;;;;11.47;8.20;;;8.70;97.20;;;;;;5051641;28;20307;-72
2022/03/22 05:00:42;;;;;;;12.13;8.33;;;8.70;96.90;;;;;;5053065;28;20236;-72
2022/03/22 05:03:08;;;;;;;10.83;8.33;;;8.70;96.80;;;;;;5051750;28;20197;-72
2022/03/22 05:08:18;;;;;;;13.37;8.73;;;8.70;96.70;;;;;;5041028;28;20193;-72
2022/03/22 05:10:44;;;;;;;11.73;8.27;;;8.70;96.70;;;;;;5035338;28;20189;-69
2022/03/22 05:13:12;;;;;;;9.80;7.40;;;8.70;96.50;;;;;;5045115;28;20288;-71
2022/03/22 05:15:38;;;;;;;10.70;7.63;;;8.70;96.60;;;;;;5035923;28;20216;-69
2022/03/22 05:18:06;;;;;;;11.77;8.30;;;8.70;96.40;;;;;;5044457;28;20209;-71
2022/03/22 05:20:34;;;;;;;11.83;8.13;;;8.70;96.50;;;;;;5052252;28;20292;-71
2022/03/22 05:23:00;;;;;;;10.57;7.77;;;8.70;96.30;;;;;;5047742;28;20251;-70
2022/03/22 05:25:31;;;;;;;10.43;7.70;;;8.70;96.40;;;;;;5039954;28;20182;-70
2022/03/22 05:28:03;;;;;;;10.33;7.43;;;8.70;96.40;;;;;;5047795;28;20212;-70
2022/03/22 05:30:32;;;;;;;10.10;7.93;;;8.70;96.20;;;;;;5052842;28;20177;-70
2022/03/22 05:32:58;;;;;;;9.33;6.90;;;8.70;96.50;;;;;;5048633;28;20687;-70
2022/03/22 05:35:24;;;;;;;9.63;7.60;;;8.70;96.40;;;;;;5041323;28;20182;-70
2022/03/22 05:37:52;;;;;;;10.17;7.37;;;8.70;96.30;;;;;;5052828;28;20215;-70
2022/03/22 05:40:23;;;;;;;10.13;8.03;;;8.70;96.70;;;;;;5048319;28;20478;-70
2022/03/22 05:42:51;;;;;;;10.03;7.47;;;8.60;96.50;;;;;;5052908;28;20173;-70
2022/03/22 05:45:17;;;;;;;9.13;7.30;;;8.60;96.60;;;;;;5041886;28;20206;-70
2022/03/22 05:47:46;;;;;;;11.73;7.80;;;8.60;96.60;;;;;;5053935;28;20237;-70
2022/03/22 05:50:14;;;;;;;11.17;8.37;;;8.60;96.60;;;;;;5053173;28;20351;-72
2022/03/22 05:52:44;;;;;;;9.63;7.40;;;8.60;97.10;;;;;;5055862;28;20256;-70
2022/03/22 05:55:10;;;;;;;9.80;7.10;;;8.60;97.00;;;;;;5056070;28;20188;-71
2022/03/22 05:57:38;;;;;;;8.47;7.03;;;8.50;97.00;;;;;;5045021;28;20205;-73
2022/03/22 06:00:06;;;;;;;9.90;7.87;;;8.50;96.90;;;;;;5050705;28;20228;-72
2022/03/22 06:02:35;;;;;;;12.60;8.00;;;8.50;97.20;;;;;;5053093;28;20182;-73
2022/03/22 06:05:00;;;;;;;11.30;7.93;;;8.50;97.40;;;;;;5043895;28;20177;-73
2022/03/22 06:07:28;;;;;;;10.17;7.83;;;8.50;97.70;;;;;;5042224;28;20206;-72
2022/03/22 06:09:54;;;;;;;9.97;8.10;;;8.50;97.60;;;;;;5051815;28;20197;-73
2022/03/22 06:12:19;;;;;;;11.07;7.23;;;8.50;97.70;;;;;;5050680;28;20192;-70
2022/03/22 06:14:47;;;;;;;10.83;7.83;;;8.50;97.70;;;;;;5054885;28;20177;-73
2022/03/22 06:17:15;;;;;;;9.37;7.43;;;8.50;97.90;;;;;;5040509;28;20256;-73
2022/03/22 06:19:43;;;;;;;10.73;7.67;;;8.50;97.80;;;;;;5045109;28;20201;-69
2022/03/22 06:22:08;;;;;;;10.40;7.87;;;8.50;97.90;;;;;;5055440;28;20178;-72
2022/03/22 06:24:37;;;;;;;8.93;7.10;;;8.50;98.10;;;;;;5054151;28;20196;-73
2022/03/22 06:27:06;;;;;;;10.37;6.93;;;8.60;98.10;;;;;;5038044;28;20272;-71
2022/03/22 06:29:34;;;;;;;8.30;6.30;;;8.60;97.90;;;;;;5052632;28;20177;-71
2022/03/22 06:32:00;;;;;;;8.83;6.83;;;8.60;97.90;;;;;;5055085;28;20213;-73
2022/03/22 06:34:26;;;;;;;8.97;6.80;;;8.60;98.00;;;;;;5055698;28;20346;-73
2022/03/22 06:36:54;;;;;;;9.27;6.97;;;8.70;98.00;;;;;;5053855;28;20783;-73
2022/03/22 06:39:20;;;;;;;8.20;6.30;;;8.70;98.00;;;;;;5054449;28;20251;-73
2022/03/22 06:41:45;;;;;;;7.97;6.33;;;8.70;97.90;;;;;;5054312;28;20185;-73
2022/03/22 06:44:11;;;;;;;8.87;6.87;;;8.80;97.90;;;;;;5065139;28;20198;-75
2022/03/22 06:46:39;;;;;;;9.07;6.70;;;8.80;97.90;;;;;;5048808;28;20181;-73
2022/03/22 06:49:05;;;;;;;10.97;7.07;;;8.80;97.80;;;;;;5051397;28;20185;-74
2022/03/22 06:51:33;;;;;;;11.00;7.53;;;8.90;97.90;;;;;;5054670;28;20619;-73
2022/03/22 06:53:59;;;;;;;12.07;7.23;;;8.90;97.90;;;;;;5054549;28;20177;-73
2022/03/22 06:56:27;;;;;;;9.40;7.43;;;8.90;98.00;;;;;;5053133;28;20219;-70
2022/03/22 06:58:52;;;;;;;9.70;7.73;;;9.00;98.00;;;;;;5054240;28;20238;-73
2022/03/22 07:01:21;;;;;;;9.97;7.50;;;9.00;98.10;;;;;;5058346;28;20259;-73
2022/03/22 07:03:49;;;;;;;10.80;7.53;;;9.10;98.00;;;;;;5051386;28;20198;-71
2022/03/22 07:06:14;;;;;;;11.03;8.10;;;9.10;98.20;;;;;;5034606;28;20185;-73
2022/03/22 07:08:40;;;;;;;10.10;7.80;;;9.20;97.90;;;;;;5054078;28;20209;-71
2022/03/22 07:13:52;;;;;;;9.43;7.00;;;9.30;97.80;;;;;;5043910;28;20249;-72
2022/03/22 07:16:19;;;;;;;9.73;7.53;;;9.30;97.80;;;;;;5054467;28;20176;-74
2022/03/22 07:18:44;;;;;;;10.10;7.00;;;9.40;97.80;;;;;;5054536;28;20255;-74
2022/03/22 07:21:12;;;;;;;8.77;6.40;;;9.40;97.70;;;;;;5054270;28;20233;-74
2022/03/22 07:23:41;;;;;;;10.97;8.10;;;9.50;97.80;;;;;;5054254;28;20177;-73
2022/03/22 07:26:09;;;;;;;9.50;7.63;;;9.50;97.80;;;;;;5052355;28;20641;-73
2022/03/22 07:28:35;;;;;;;10.30;7.83;;;9.50;97.70;;;;;;5053834;28;20606;-69
2022/03/22 07:31:05;;;;;;;9.00;7.23;;;9.60;97.60;;;;;;5044572;28;20304;-73
2022/03/22 07:33:34;;;;;;;12.80;8.10;;;9.60;97.60;;;;;;5048148;28;20201;-74
2022/03/22 07:36:02;;;;;;;11.00;8.27;;;9.70;97.50;;;;;;5053777;28;20181;-73
2022/03/22 07:38:27;;;;;;;9.70;7.70;;;9.80;97.50;;;;;;5053887;28;20204;-74
2022/03/22 07:40:56;;;;;;;11.07;7.47;;;9.80;97.40;;;;;;5035941;28;20356;-72
2022/03/22 07:43:29;;;;;;;8.93;6.80;;;9.90;97.50;;;;;;5054075;28;20176;-74
2022/03/22 07:45:55;;;;;;;9.70;7.33;;;10.00;97.00;;;;;;5068922;28;20177;-73
2022/03/22 07:48:20;;;;;;;11.37;7.83;;;10.00;96.90;;;;;;5053869;28;20185;-72
2022/03/22 07:53:33;;;;;;;10.03;6.80;;;10.20;96.80;;;;;;5054440;28;20187;-75
2022/03/22 07:55:58;;;;;;;11.67;7.83;;;10.30;96.70;;;;;;5042484;28;20375;-74
2022/03/22 07:58:24;;;;;;;11.80;8.23;;;10.30;96.70;;;;;;5053899;28;20243;-74
2022/03/22 08:00:50;;;;;;;10.83;7.80;;;10.40;96.60;;;;;;5052247;28;20178;-74
2022/03/22 08:03:18;;;;;;;11.90;7.77;;;10.50;96.50;;;;;;5051324;28;20194;-74
2022/03/22 08:05:47;;;;;;;13.73;9.23;;;10.60;96.50;;;;;;5051468;28;20177;-75
2022/03/22 08:08:14;;;;;;;11.53;7.97;;;10.70;96.10;;;;;;5043485;28;20234;-74
2022/03/22 08:10:42;;;;;;;12.73;8.00;;;10.80;96.30;;;;;;5053703;28;20192;-72
2022/03/22 08:13:11;;;;;;;13.13;8.60;;;10.80;96.40;;;;;;5052613;28;20184;-74
2022/03/22 08:15:40;;;;;;;9.50;7.70;;;10.90;96.10;;;;;;5053240;28;20212;-74
2022/03/22 08:18:10;;;;;;;12.00;7.83;;;11.00;96.00;;;;;;5037186;28;20200;-74
2022/03/22 08:20:36;;;;;;;12.00;7.90;;;11.10;95.90;;;;;;5039974;28;20181;-74
2022/03/22 08:23:03;;;;;;;8.57;6.95;;;11.20;95.40;;;;;;5041327;28;20178;-72
2022/03/22 08:25:41;;;;;;;9.77;7.47;;;11.30;95.20;;;;;;5051782;28;20264;-74
2022/03/22 08:28:11;;;;;;;11.27;7.97;;;11.40;94.60;;;;;;5052693;28;20208;-74
2022/03/22 08:30:40;;;;;;;10.60;8.25;;;11.50;94.70;;;;;;5046575;28;20204;-74
2022/03/22 08:33:09;;;;;;;9.68;8.23;;;11.60;94.50;;;;;;5052034;28;20201;-74
2022/03/22 08:35:38;;;;;;;9.93;8.02;;;11.70;93.10;;;;;;5052288;28;20173;-74
2022/03/22 08:38:03;;;;;;;10.73;7.70;;;11.80;92.70;;;;;;5050390;28;20227;-73
2022/03/22 08:40:30;;;;;;;9.57;7.32;;;11.90;93.20;;;;;;5036179;28;20325;-74
2022/03/22 08:42:57;;;;;;;11.57;7.43;;;12.00;92.60;;;;;;5053127;28;20259;-74
2022/03/22 08:45:24;;;;;;;9.55;7.25;;;12.10;92.60;;;;;;5044525;28;20232;-72
2022/03/22 08:47:56;;;;;;;10.10;7.45;;;12.20;92.00;;;;;;5048610;28;20193;-73
2022/03/22 08:50:23;;;;;;;8.68;7.05;;;12.30;91.50;;;;;;5040235;28;20248;-73
2022/03/22 08:52:53;;;;;;;8.27;6.85;;;12.40;91.70;;;;;;5050855;28;20262;-72
2022/03/22 08:55:23;;;;;;;8.95;7.32;;;12.60;92.00;;;;;;5052991;28;20201;-73
2022/03/22 08:57:52;;;;;;;8.73;7.07;;;12.70;91.10;;;;;;5038173;28;20474;-72
2022/03/22 09:00:20;;;;;;;8.65;7.30;;;12.80;90.40;;;;;;5052538;28;20185;-70
2022/03/22 09:02:49;;;;;;;10.98;7.03;;;12.90;89.10;;;;;;5049207;28;20189;-73
2022/03/22 09:08:01;;;;;;;9.23;7.55;;;13.10;88.40;;;;;;5057222;28;20208;-71
2022/03/22 09:10:29;;;;;;;8.85;7.18;;;13.20;85.90;;;;;;5043005;28;20205;-73
2022/03/22 09:12:56;;;;;;;10.75;7.13;;;13.40;85.20;;;;;;5066313;28;20177;-74
2022/03/22 09:15:26;;;;;;;10.60;7.63;;;13.50;85.30;;;;;;5045452;28;20173;-72
2022/03/22 09:17:52;;;;;;;9.75;7.22;;;13.60;83.90;;;;;;5056621;28;20193;-71
2022/03/22 09:20:19;;;;;;;8.45;6.75;;;13.70;84.20;;;;;;5068839;28;20185;-71
2022/03/22 09:22:51;;;;;;;8.27;7.13;;;13.80;84.60;;;;;;5086566;28;20283;-73
2022/03/22 09:25:25;;;;;;;9.20;6.65;;;13.90;79.80;;;;;;5056734;28;20165;-71
2022/03/22 09:27:51;;;;;;;8.98;6.47;;;14.00;81.70;;;;;;5056153;28;20236;-74
2022/03/22 09:30:17;;;;;;;8.27;6.53;;;14.10;81.30;;;;;;5056736;28;20184;-74
2022/03/22 09:32:43;;;;;;;10.05;7.57;;;14.30;81.80;;;;;;5050123;28;20192;-74
2022/03/22 09:35:12;;;;;;;9.43;7.43;;;14.40;80.00;;;;;;5056984;28;20288;-74
2022/03/22 09:37:39;;;;;;;10.07;7.43;;;14.50;78.30;;;;;;5071700;28;20284;-74
2022/03/22 09:40:12;;;;;;;8.40;7.22;;;14.60;78.60;;;;;;5056253;28;20262;-73
2022/03/22 09:42:42;;;;;;;9.77;7.40;;;14.70;76.60;;;;;;5056194;28;20177;-73
2022/03/22 09:45:09;;;;;;;8.65;6.85;;;14.80;77.40;;;;;;5055643;28;20264;-74
2022/03/22 09:47:38;;;;;;;9.63;6.90;;;14.90;77.00;;;;;;5056175;28;20185;-73
2022/03/22 09:50:08;;;;;;;8.88;7.10;;;15.10;77.10;;;;;;5055967;28;20181;-73
2022/03/22 09:52:38;;;;;;;8.63;7.13;;;15.50;74.20;;;;;;5057935;28;20375;-74
2022/03/22 09:55:12;;;;;;;8.80;6.80;;;16.10;73.30;;;;;;5075334;28;20189;-73
2022/03/22 09:57:38;;;;;;;8.63;7.47;;;16.80;70.90;;;;;;5052503;28;20229;-74
2022/03/22 10:00:08;;;;;;;7.55;6.28;;;17.50;66.40;;;;;;5043813;28;20213;-74
2022/03/22 10:02:36;;;;;;;7.63;5.80;;;18.20;64.70;;;;;;5036716;28;20174;-74
2022/03/22 10:05:04;;;;;;;9.05;6.43;;;18.80;68.10;;;;;;5045840;28;20189;-72
2022/03/22 10:07:29;;;;;;;7.90;6.75;;;19.40;63.90;;;;;;5060565;28;20184;-70
2022/03/22 10:10:00;;;;;;;8.45;6.55;;;19.80;62.50;;;;;;5072361;28;20373;-75
2022/03/22 10:12:29;;;;;;;7.30;6.40;;;20.20;61.90;;;;;;5060823;28;20161;-74
2022/03/22 10:15:10;;;;;;;7.93;5.75;;;20.60;57.50;;;;;;5054955;28;20204;-74
2022/03/22 10:17:37;;;;;;;8.77;6.35;;;21.00;57.40;;;;;;5050899;28;20247;-73
2022/03/22 10:20:05;;;;;;;7.38;6.07;;;21.30;59.40;;;;;;5054581;28;20169;-73
2022/03/22 10:22:35;;;;;;;7.65;6.40;;;21.60;59.30;;;;;;5054060;28;20233;-70
2022/03/22 10:25:05;;;;;;;6.95;6.25;;;21.90;56.50;;;;;;5055677;28;20191;-75
2022/03/22 10:27:39;;;;;;;8.35;6.68;;;22.10;57.10;;;;;;5056600;28;20227;-74
2022/03/22 10:30:09;;;;;;;7.32;6.55;;;22.20;55.00;;;;;;5054247;28;20188;-75
2022/03/22 10:32:43;;;;;;;9.07;6.68;;;22.20;53.60;;;;;;5047959;28;20173;-75
2022/03/22 10:35:23;;;;;;;8.45;6.78;;;22.30;51.70;;;;;;5055385;28;20200;-74
2022/03/22 10:37:59;;;;;;;10.57;6.80;;;22.40;52.60;;;;;;5054287;28;20208;-74
2022/03/22 10:40:35;;;;;;;7.78;6.50;;;22.50;53.70;;;;;;5054886;28;20239;-70
2022/03/22 10:43:04;;;;;;;9.07;6.65;;;22.60;52.20;;;;;;5045416;28;20598;-74
2022/03/22 10:45:42;;;;;;;7.68;6.75;;;22.70;51.00;;;;;;5054501;28;20173;-75
2022/03/22 10:48:08;;;;;;;7.10;6.35;;;22.80;52.50;;;;;;5055309;28;20184;-75
2022/03/22 10:50:39;;;;;;;7.45;6.28;;;22.90;52.40;;;;;;5054381;28;20181;-75
2022/03/22 10:53:05;;;;;;;7.18;6.05;;;23.00;51.20;;;;;;5055067;28;20211;-73
2022/03/22 10:55:33;;;;;;;9.38;6.40;;;23.10;52.80;;;;;;5054900;28;20224;-74
2022/03/22 10:58:03;;;;;;;7.30;6.43;;;23.20;51.90;;;;;;5054324;28;20208;-73
2022/03/22 11:00:31;;;;;;;7.28;6.40;;;23.30;50.60;;;;;;5042009;28;20239;-73
2022/03/22 11:03:00;;;;;;;7.75;6.28;;;23.30;48.70;;;;;;5034672;28;20201;-75
2022/03/22 11:05:28;;;;;;;6.85;6.07;;;23.30;48.80;;;;;;5041199;28;20197;-75
2022/03/22 11:07:57;;;;;;;6.95;6.00;;;23.20;48.80;;;;;;5076147;28;20267;-75
2022/03/22 11:10:30;;;;;;;6.75;5.90;;;23.10;48.00;;;;;;5068276;28;20200;-73
2022/03/22 11:13:02;;;;;;;8.23;6.68;;;23.10;48.70;;;;;;5050807;28;20180;-74
2022/03/22 11:15:34;;;;;;;7.63;6.32;;;23.00;46.40;;;;;;5072515;28;20229;-73
2022/03/22 11:18:05;;;;;;;7.50;6.32;;;22.90;47.70;;;;;;5034635;28;20202;-74
2022/03/22 11:20:31;;;;;;;6.60;5.82;;;22.90;47.90;;;;;;5053780;28;20271;-76
2022/03/22 11:22:57;;;;;;;7.00;6.03;;;22.90;48.20;;;;;;5045455;28;20292;-71
2022/03/22 11:25:28;;;;;;;8.40;6.95;;;22.90;47.90;;;;;;5041750;28;20215;-79
2022/03/22 11:28:05;;;;;;;8.52;6.95;;;22.90;46.70;;;;;;5053137;28;20235;-72
2022/03/22 11:30:32;;;;;;;9.80;7.65;;;22.90;43.90;;;;;;5038575;28;20172;-77
2022/03/22 11:35:52;;;;;;;8.45;7.45;;;22.80;45.90;;;;;;5049825;28;20229;-68
2022/03/22 11:38:41;;;;;;;8.70;7.30;;;22.80;44.90;;;;;;5042483;28;20233;-78
2022/03/22 11:44:38;;;;;;;7.57;6.78;;;22.80;44.70;;;;;;5046398;28;20183;-76
2022/03/22 11:47:06;;;;;;;7.65;6.70;;;22.70;45.60;;;;;;5067086;28;20440;-74
2022/03/22 11:49:47;;;;;;;9.45;7.35;;;22.70;44.70;;;;;;5050808;28;20190;-78
2022/03/22 11:52:16;;;;;;;8.40;6.85;;;22.70;44.60;;;;;;5066622;28;20201;-78
2022/03/22 11:54:54;;;;;;;7.25;6.18;;;22.70;46.20;;;;;;5050892;28;20253;-79
2022/03/22 11:57:22;;;;;;;8.48;6.95;;;22.80;45.60;;;;;;5051958;28;20189;-77
2022/03/22 11:59:48;;;;;;;8.00;6.63;;;22.80;45.70;;;;;;5053117;28;20208;-76
2022/03/22 12:02:19;;;;;;;7.85;7.05;;;22.90;46.60;;;;;;5044188;28;20178;-74
2022/03/22 12:04:57;;;;;;;8.60;7.55;;;23.00;45.00;;;;;;5048586;28;20197;-76
2022/03/22 12:07:27;;;;;;;9.23;7.70;;;23.00;44.50;;;;;;5052708;28;20193;-76
2022/03/22 12:10:02;;;;;;;7.40;6.70;;;23.00;45.80;;;;;;5033922;28;20272;-77
2022/03/22 12:12:27;;;;;;;7.40;6.68;;;23.10;46.20;;;;;;5033556;28;20238;-75
2022/03/22 12:14:54;;;;;;;8.32;7.30;;;23.20;46.30;;;;;;5049918;28;20215;-75
2022/03/22 12:17:22;;;;;;;8.13;6.78;;;23.30;45.90;;;;;;5051539;28;20224;-68
2022/03/22 12:19:48;;;;;;;6.88;6.18;;;23.40;46.30;;;;;;5070088;28;20192;-78
2022/03/22 12:22:14;;;;;;;8.15;6.13;;;23.50;46.40;;;;;;5050249;28;20567;-77
2022/03/22 12:24:44;;;;;;;7.50;5.80;;;23.60;46.60;;;;;;5050875;28;20282;-79
2022/03/22 12:27:16;;;;;;;7.75;6.95;;;23.70;46.00;;;;;;5053087;28;20180;-76
2022/03/22 12:29:44;;;;;;;7.88;7.05;;;23.80;45.30;;;;;;5053182;28;20216;-75
2022/03/22 12:32:16;;;;;;;9.02;7.25;;;23.90;45.40;;;;;;5051775;28;20188;-77
2022/03/22 12:34:45;;;;;;;7.10;6.40;;;24.00;45.30;;;;;;5041990;28;20197;-75
2022/03/22 12:37:15;;;;;;;7.30;6.57;;;24.10;46.30;;;;;;5050731;28;20193;-79
2022/03/22 12:39:46;;;;;;;7.20;6.50;;;24.20;46.20;;;;;;5033481;28;20390;-75
2022/03/22 12:42:16;;;;;;;8.52;7.28;;;24.30;45.40;;;;;;5033628;28;20212;-79
2022/03/22 12:44:42;;;;;;;8.75;7.43;;;24.40;44.70;;;;;;5041897;28;20185;-77
2022/03/22 12:47:08;;;;;;;8.50;7.20;;;24.50;44.80;;;;;;5033098;28;20188;-74
2022/03/22 12:49:42;;;;;;;8.20;7.38;;;24.60;44.00;;;;;;5037621;28;20166;-77
2022/03/22 12:52:13;;;;;;;7.47;6.78;;;24.60;43.50;;;;;;5033165;28;20196;-76
2022/03/22 12:54:41;;;;;;;8.90;7.20;;;24.60;44.50;;;;;;5051124;28;20193;-78
2022/03/22 12:57:19;;;;;;;7.78;6.97;;;24.60;44.40;;;;;;5053392;28;20204;-78
2022/03/22 12:59:44;;;;;;;10.45;7.80;;;24.70;43.10;;;;;;5032858;28;20227;-78
2022/03/22 13:02:10;;;;;;;9.43;8.38;;;24.70;43.70;;;;;;5043776;28;20177;-77
2022/03/22 13:04:46;;;;;;;8.55;7.13;;;24.60;41.60;;;;;;5050314;28;20184;-77
2022/03/22 13:07:13;;;;;;;8.20;7.30;;;24.50;42.80;;;;;;5052877;28;20208;-76
2022/03/22 13:12:23;;;;;;;10.15;6.85;;;24.50;43.20;;;;;;5047833;28;20246;-78
2022/03/22 13:15:06;;;;;;;8.75;7.28;;;24.50;43.60;;;;;;5035754;28;20177;-76
2022/03/22 13:17:41;;;;;;;9.40;7.63;;;24.60;42.00;;;;;;5052833;28;20276;-74
2022/03/22 13:20:17;;;;;;;7.80;6.75;;;24.60;41.70;;;;;;5052798;28;20184;-75
2022/03/22 13:23:04;;;;;;;9.27;7.70;;;24.70;43.00;;;;;;5052181;28;20218;-77
2022/03/22 13:25:35;;;;;;;8.07;7.28;;;24.70;40.60;;;;;;5048445;28;20209;-78
2022/03/22 13:28:11;;;;;;;8.63;7.72;;;24.70;40.10;;;;;;5033089;28;20185;-77
2022/03/22 13:30:47;;;;;;;11.38;7.30;;;24.70;39.40;;;;;;5051787;28;20211;-79
2022/03/22 13:33:21;;;;;;;7.65;6.85;;;24.70;38.00;;;;;;5054658;28;20197;-79
2022/03/22 13:36:03;;;;;;;7.28;6.53;;;24.60;38.50;;;;;;5076581;28;20175;-69